sensor_id;sensor_type;location;lat;lon;timestamp;temperature;humidity
22212;DHT22;11275;52.488;13.462;2023-06-22T00:02:17;23.60;99.90
22212;DHT22;11275;52.488;13.462;2023-06-22T00:04:43;23.60;99.90
22212;DHT22;11275;52.488;13.462;2023-06-22T00:07:08;23.60;99.90
22212;DHT22;11275;52.488;13.462;2023-06-22T00:09:34;23.50;99.90
22212;DHT22;11275;52.488;13.462;2023-06-22T00:12:00;23.50;99.90
22212;DHT22;11275;52.488;13.462;2023-06-22T00:14:26;23.40;99.90
22212;DHT22;11275;52.488;13.462;2023-06-22T00:16:51;23.40;99.90
22212;DHT22;11275;52.488;13.462;2023-06-22T00:19:21;23.40;99.90
22212;DHT22;11275;52.488;13.462;2023-06-22T00:21:47;23.40;99.90
22212;DHT22;11275;52.488;13.462;2023-06-22T00:24:18;23.30;99.90
22212;DHT22;11275;52.488;13.462;2023-06-22T00:26:44;23.30;99.90
22212;DHT22;11275;52.488;13.462;2023-06-22T00:29:09;23.30;99.90
22212;DHT22;11275;52.488;13.462;2023-06-22T00:31:35;23.20;99.90
22212;DHT22;11275;52.488;13.462;2023-06-22T00:34:00;23.10;99.90
22212;DHT22;11275;52.488;13.462;2023-06-22T00:36:26;23.20;99.90
22212;DHT22;11275;52.488;13.462;2023-06-22T00:38:52;23.10;99.90
22212;DHT22;11275;52.488;13.462;2023-06-22T00:41:17;23.10;99.90
22212;DHT22;11275;52.488;13.462;2023-06-22T00:43:43;23.00;99.90
22212;DHT22;11275;52.488;13.462;2023-06-22T00:46:09;23.00;99.90
22212;DHT22;11275;52.488;13.462;2023-06-22T00:48:35;22.90;99.90
22212;DHT22;11275;52.488;13.462;2023-06-22T00:51:02;22.90;99.90
22212;DHT22;11275;52.488;13.462;2023-06-22T00:53:28;22.90;99.90
22212;DHT22;11275;52.488;13.462;2023-06-22T00:55:54;22.90;99.90
22212;DHT22;11275;52.488;13.462;2023-06-22T00:58:21;22.90;99.90
22212;DHT22;11275;52.488;13.462;2023-06-22T01:00:47;22.90;99.90
22212;DHT22;11275;52.488;13.462;2023-06-22T01:03:13;22.90;99.90
22212;DHT22;11275;52.488;13.462;2023-06-22T01:05:40;22.90;99.90
22212;DHT22;11275;52.488;13.462;2023-06-22T01:13:11;22.80;99.90
22212;DHT22;11275;52.488;13.462;2023-06-22T01:15:45;22.70;99.90
22212;DHT22;11275;52.488;13.462;2023-06-22T01:18:13;22.60;99.90
22212;DHT22;11275;52.488;13.462;2023-06-22T01:20:40;22.60;99.90
22212;DHT22;11275;52.488;13.462;2023-06-22T01:23:31;22.60;99.90
22212;DHT22;11275;52.488;13.462;2023-06-22T01:26:18;22.70;99.90
22212;DHT22;11275;52.488;13.462;2023-06-22T01:28:47;22.70;99.90
22212;DHT22;11275;52.488;13.462;2023-06-22T01:31:25;22.70;99.90
22212;DHT22;11275;52.488;13.462;2023-06-22T01:33:57;22.70;99.90
22212;DHT22;11275;52.488;13.462;2023-06-22T01:36:24;22.70;99.90
22212;DHT22;11275;52.488;13.462;2023-06-22T01:38:52;22.70;99.90
22212;DHT22;11275;52.488;13.462;2023-06-22T01:41:18;22.60;99.90
22212;DHT22;11275;52.488;13.462;2023-06-22T01:43:45;22.60;99.90
22212;DHT22;11275;52.488;13.462;2023-06-22T01:46:11;22.50;99.90
22212;DHT22;11275;52.488;13.462;2023-06-22T01:48:38;22.60;99.90
22212;DHT22;11275;52.488;13.462;2023-06-22T01:51:04;22.50;99.90
22212;DHT22;11275;52.488;13.462;2023-06-22T01:53:30;22.40;99.90
22212;DHT22;11275;52.488;13.462;2023-06-22T01:55:56;22.50;99.90
22212;DHT22;11275;52.488;13.462;2023-06-22T01:58:26;22.50;99.90
22212;DHT22;11275;52.488;13.462;2023-06-22T02:01:00;22.50;99.90
22212;DHT22;11275;52.488;13.462;2023-06-22T02:03:35;22.50;99.90
22212;DHT22;11275;52.488;13.462;2023-06-22T02:06:05;22.50;99.90
22212;DHT22;11275;52.488;13.462;2023-06-22T02:08:44;22.50;99.90
22212;DHT22;11275;52.488;13.462;2023-06-22T02:11:13;22.50;99.90
22212;DHT22;11275;52.488;13.462;2023-06-22T02:13:40;22.50;99.90
22212;DHT22;11275;52.488;13.462;2023-06-22T02:16:12;22.50;99.90
22212;DHT22;11275;52.488;13.462;2023-06-22T02:18:38;22.50;99.90
22212;DHT22;11275;52.488;13.462;2023-06-22T02:21:06;22.40;99.90
22212;DHT22;11275;52.488;13.462;2023-06-22T02:23:32;22.40;99.90
22212;DHT22;11275;52.488;13.462;2023-06-22T02:26:02;22.40;99.90
22212;DHT22;11275;52.488;13.462;2023-06-22T02:28:27;22.40;99.90
22212;DHT22;11275;52.488;13.462;2023-06-22T02:30:53;22.40;99.90
22212;DHT22;11275;52.488;13.462;2023-06-22T02:33:18;22.40;99.90
22212;DHT22;11275;52.488;13.462;2023-06-22T02:35:44;22.40;99.90
22212;DHT22;11275;52.488;13.462;2023-06-22T02:38:11;22.40;99.90
22212;DHT22;11275;52.488;13.462;2023-06-22T02:40:36;22.30;99.90
22212;DHT22;11275;52.488;13.462;2023-06-22T02:43:03;22.30;99.90
22212;DHT22;11275;52.488;13.462;2023-06-22T02:45:28;22.30;99.90
22212;DHT22;11275;52.488;13.462;2023-06-22T02:47:55;22.20;99.90
22212;DHT22;11275;52.488;13.462;2023-06-22T02:50:21;22.20;99.90
22212;DHT22;11275;52.488;13.462;2023-06-22T02:52:46;22.20;99.90
22212;DHT22;11275;52.488;13.462;2023-06-22T02:55:12;22.30;99.90
22212;DHT22;11275;52.488;13.462;2023-06-22T02:57:37;22.30;99.90
22212;DHT22;11275;52.488;13.462;2023-06-22T03:00:10;22.30;99.90
22212;DHT22;11275;52.488;13.462;2023-06-22T03:02:46;22.30;99.90
22212;DHT22;11275;52.488;13.462;2023-06-22T03:05:12;22.40;99.90
22212;DHT22;11275;52.488;13.462;2023-06-22T03:07:42;22.40;99.90
22212;DHT22;11275;52.488;13.462;2023-06-22T03:10:12;22.40;99.90
22212;DHT22;11275;52.488;13.462;2023-06-22T03:12:40;22.40;99.90
22212;DHT22;11275;52.488;13.462;2023-06-22T03:15:11;22.40;99.90
22212;DHT22;11275;52.488;13.462;2023-06-22T03:17:38;22.40;99.90
22212;DHT22;11275;52.488;13.462;2023-06-22T03:20:07;22.40;99.90
22212;DHT22;11275;52.488;13.462;2023-06-22T03:22:38;22.40;99.90
22212;DHT22;11275;52.488;13.462;2023-06-22T03:25:04;22.40;99.90
22212;DHT22;11275;52.488;13.462;2023-06-22T03:27:36;22.30;99.90
22212;DHT22;11275;52.488;13.462;2023-06-22T03:30:01;22.30;99.90
22212;DHT22;11275;52.488;13.462;2023-06-22T03:32:27;22.30;99.90
22212;DHT22;11275;52.488;13.462;2023-06-22T03:34:53;22.30;99.90
22212;DHT22;11275;52.488;13.462;2023-06-22T03:37:19;22.20;99.90
22212;DHT22;11275;52.488;13.462;2023-06-22T03:39:44;22.30;99.90
22212;DHT22;11275;52.488;13.462;2023-06-22T03:42:10;22.30;99.90
22212;DHT22;11275;52.488;13.462;2023-06-22T03:44:36;22.30;99.90
22212;DHT22;11275;52.488;13.462;2023-06-22T03:47:05;22.30;99.90
22212;DHT22;11275;52.488;13.462;2023-06-22T03:49:33;22.30;99.90
22212;DHT22;11275;52.488;13.462;2023-06-22T03:52:00;22.30;99.90
22212;DHT22;11275;52.488;13.462;2023-06-22T03:54:26;22.30;99.90
22212;DHT22;11275;52.488;13.462;2023-06-22T03:56:52;22.30;99.90
22212;DHT22;11275;52.488;13.462;2023-06-22T03:59:18;22.30;99.90
22212;DHT22;11275;52.488;13.462;2023-06-22T04:01:44;22.30;99.90
22212;DHT22;11275;52.488;13.462;2023-06-22T04:04:10;22.30;99.90
22212;DHT22;11275;52.488;13.462;2023-06-22T04:06:35;22.30;99.90
22212;DHT22;11275;52.488;13.462;2023-06-22T04:09:01;22.30;99.90
22212;DHT22;11275;52.488;13.462;2023-06-22T04:11:27;22.30;99.90
22212;DHT22;11275;52.488;13.462;2023-06-22T04:13:52;22.30;99.90
22212;DHT22;11275;52.488;13.462;2023-06-22T04:16:19;22.30;99.90
22212;DHT22;11275;52.488;13.462;2023-06-22T04:18:44;22.20;99.90
22212;DHT22;11275;52.488;13.462;2023-06-22T04:21:10;22.20;99.90
22212;DHT22;11275;52.488;13.462;2023-06-22T04:23:36;22.30;99.90
22212;DHT22;11275;52.488;13.462;2023-06-22T04:26:02;22.30;99.90
22212;DHT22;11275;52.488;13.462;2023-06-22T04:28:27;22.20;99.90
22212;DHT22;11275;52.488;13.462;2023-06-22T04:30:53;22.20;99.90
22212;DHT22;11275;52.488;13.462;2023-06-22T04:33:23;22.30;99.90
22212;DHT22;11275;52.488;13.462;2023-06-22T04:35:49;22.30;99.90
22212;DHT22;11275;52.488;13.462;2023-06-22T04:38:14;22.30;99.90
22212;DHT22;11275;52.488;13.462;2023-06-22T04:40:40;22.30;99.90
22212;DHT22;11275;52.488;13.462;2023-06-22T04:43:06;22.20;99.90
22212;DHT22;11275;52.488;13.462;2023-06-22T04:45:34;22.30;99.90
22212;DHT22;11275;52.488;13.462;2023-06-22T04:48:04;22.30;99.90
22212;DHT22;11275;52.488;13.462;2023-06-22T04:50:29;22.40;99.90
22212;DHT22;11275;52.488;13.462;2023-06-22T04:52:55;22.40;99.90
22212;DHT22;11275;52.488;13.462;2023-06-22T04:55:21;22.50;99.90
22212;DHT22;11275;52.488;13.462;2023-06-22T04:57:47;22.60;99.90
22212;DHT22;11275;52.488;13.462;2023-06-22T05:00:18;22.60;99.90
22212;DHT22;11275;52.488;13.462;2023-06-22T05:02:46;22.70;99.90
22212;DHT22;11275;52.488;13.462;2023-06-22T05:05:13;22.80;99.90
22212;DHT22;11275;52.488;13.462;2023-06-22T05:07:47;22.90;99.90
22212;DHT22;11275;52.488;13.462;2023-06-22T05:10:16;23.00;99.90
22212;DHT22;11275;52.488;13.462;2023-06-22T05:12:42;22.90;99.90
22212;DHT22;11275;52.488;13.462;2023-06-22T05:15:08;22.90;99.90
22212;DHT22;11275;52.488;13.462;2023-06-22T05:17:36;23.00;99.90
22212;DHT22;11275;52.488;13.462;2023-06-22T06:41:01;22.50;99.90
22212;DHT22;11275;52.488;13.462;2023-06-22T06:43:26;22.50;99.90
22212;DHT22;11275;52.488;13.462;2023-06-22T06:45:52;22.70;99.90
22212;DHT22;11275;52.488;13.462;2023-06-22T06:48:18;22.90;99.90
22212;DHT22;11275;52.488;13.462;2023-06-22T06:50:43;23.20;99.90
22212;DHT22;11275;52.488;13.462;2023-06-22T06:55:40;23.60;99.90
22212;DHT22;11275;52.488;13.462;2023-06-22T06:58:06;23.80;99.90
22212;DHT22;11275;52.488;13.462;2023-06-22T07:00:33;23.80;99.90
22212;DHT22;11275;52.488;13.462;2023-06-22T07:03:00;23.90;99.90
22212;DHT22;11275;52.488;13.462;2023-06-22T07:05:26;23.90;99.90
22212;DHT22;11275;52.488;13.462;2023-06-22T07:07:51;24.00;99.90
22212;DHT22;11275;52.488;13.462;2023-06-22T07:10:18;24.00;99.90
22212;DHT22;11275;52.488;13.462;2023-06-22T07:12:44;23.90;99.90
22212;DHT22;11275;52.488;13.462;2023-06-22T07:15:10;23.80;99.90
22212;DHT22;11275;52.488;13.462;2023-06-22T07:17:38;23.90;99.90
22212;DHT22;11275;52.488;13.462;2023-06-22T07:20:06;24.10;99.90
22212;DHT22;11275;52.488;13.462;2023-06-22T07:22:35;24.30;99.90
22212;DHT22;11275;52.488;13.462;2023-06-22T07:25:01;24.50;99.90
22212;DHT22;11275;52.488;13.462;2023-06-22T07:27:30;24.70;99.90
22212;DHT22;11275;52.488;13.462;2023-06-22T07:30:00;24.80;99.90
22212;DHT22;11275;52.488;13.462;2023-06-22T07:32:26;24.80;99.90
22212;DHT22;11275;52.488;13.462;2023-06-22T07:34:53;25.00;99.90
22212;DHT22;11275;52.488;13.462;2023-06-22T07:37:19;25.00;99.90
22212;DHT22;11275;52.488;13.462;2023-06-22T07:39:45;25.10;99.90
22212;DHT22;11275;52.488;13.462;2023-06-22T07:42:10;25.10;99.90
22212;DHT22;11275;52.488;13.462;2023-06-22T07:44:36;25.30;99.90
22212;DHT22;11275;52.488;13.462;2023-06-22T07:47:02;25.30;99.90
22212;DHT22;11275;52.488;13.462;2023-06-22T07:49:28;25.20;99.90
22212;DHT22;11275;52.488;13.462;2023-06-22T07:51:54;25.20;99.90
22212;DHT22;11275;52.488;13.462;2023-06-22T07:54:20;25.30;99.90
22212;DHT22;11275;52.488;13.462;2023-06-22T07:56:46;25.30;99.90
22212;DHT22;11275;52.488;13.462;2023-06-22T07:59:12;25.50;99.90
22212;DHT22;11275;52.488;13.462;2023-06-22T08:01:37;25.60;99.90
22212;DHT22;11275;52.488;13.462;2023-06-22T08:04:03;25.80;99.90
22212;DHT22;11275;52.488;13.462;2023-06-22T08:06:30;25.80;99.90
22212;DHT22;11275;52.488;13.462;2023-06-22T08:08:56;26.00;99.90
22212;DHT22;11275;52.488;13.462;2023-06-22T08:11:24;26.00;99.90
22212;DHT22;11275;52.488;13.462;2023-06-22T08:13:51;26.00;99.10
22212;DHT22;11275;52.488;13.462;2023-06-22T08:16:17;26.00;99.00
22212;DHT22;11275;52.488;13.462;2023-06-22T08:18:43;26.00;98.70
22212;DHT22;11275;52.488;13.462;2023-06-22T08:21:08;26.20;98.80
22212;DHT22;11275;52.488;13.462;2023-06-22T08:23:34;26.30;98.40
22212;DHT22;11275;52.488;13.462;2023-06-22T08:26:00;26.30;97.70
22212;DHT22;11275;52.488;13.462;2023-06-22T08:28:26;26.40;97.40
22212;DHT22;11275;52.488;13.462;2023-06-22T08:30:52;26.50;96.90
22212;DHT22;11275;52.488;13.462;2023-06-22T08:33:17;26.50;96.50
22212;DHT22;11275;52.488;13.462;2023-06-22T08:35:43;26.50;96.50
22212;DHT22;11275;52.488;13.462;2023-06-22T08:38:09;26.50;96.30
22212;DHT22;11275;52.488;13.462;2023-06-22T08:40:34;26.60;96.60
22212;DHT22;11275;52.488;13.462;2023-06-22T08:43:00;26.60;96.10
22212;DHT22;11275;52.488;13.462;2023-06-22T08:45:26;26.60;96.20
22212;DHT22;11275;52.488;13.462;2023-06-22T08:47:51;26.70;96.10
22212;DHT22;11275;52.488;13.462;2023-06-22T08:50:17;26.80;95.90
22212;DHT22;11275;52.488;13.462;2023-06-22T08:52:43;26.90;95.90
22212;DHT22;11275;52.488;13.462;2023-06-22T08:55:09;27.10;95.30
22212;DHT22;11275;52.488;13.462;2023-06-22T08:57:35;27.30;94.20
22212;DHT22;11275;52.488;13.462;2023-06-22T09:00:06;27.20;94.20
22212;DHT22;11275;52.488;13.462;2023-06-22T09:02:36;27.10;93.80
22212;DHT22;11275;52.488;13.462;2023-06-22T09:05:03;27.10;93.90
22212;DHT22;11275;52.488;13.462;2023-06-22T09:07:29;27.10;92.80
22212;DHT22;11275;52.488;13.462;2023-06-22T09:09:55;27.20;91.90
22212;DHT22;11275;52.488;13.462;2023-06-22T09:12:21;27.30;92.30
22212;DHT22;11275;52.488;13.462;2023-06-22T09:14:51;27.30;91.40
22212;DHT22;11275;52.488;13.462;2023-06-22T09:17:17;27.30;91.90
22212;DHT22;11275;52.488;13.462;2023-06-22T09:19:42;27.50;92.10
22212;DHT22;11275;52.488;13.462;2023-06-22T09:22:08;27.50;92.30
22212;DHT22;11275;52.488;13.462;2023-06-22T09:24:33;27.50;92.40
22212;DHT22;11275;52.488;13.462;2023-06-22T09:26:59;27.70;92.20
22212;DHT22;11275;52.488;13.462;2023-06-22T09:29:25;27.80;92.00
22212;DHT22;11275;52.488;13.462;2023-06-22T09:31:51;27.90;91.60
22212;DHT22;11275;52.488;13.462;2023-06-22T09:34:18;28.00;92.10
22212;DHT22;11275;52.488;13.462;2023-06-22T09:36:46;28.00;91.60
22212;DHT22;11275;52.488;13.462;2023-06-22T09:39:12;28.00;92.00
22212;DHT22;11275;52.488;13.462;2023-06-22T09:41:37;28.00;92.10
22212;DHT22;11275;52.488;13.462;2023-06-22T09:44:03;27.90;91.70
22212;DHT22;11275;52.488;13.462;2023-06-22T09:46:29;27.80;91.70
22212;DHT22;11275;52.488;13.462;2023-06-22T09:48:54;27.80;91.90
22212;DHT22;11275;52.488;13.462;2023-06-22T09:51:20;27.70;92.00
22212;DHT22;11275;52.488;13.462;2023-06-22T09:53:47;27.80;92.20
22212;DHT22;11275;52.488;13.462;2023-06-22T09:56:13;27.90;92.40
22212;DHT22;11275;52.488;13.462;2023-06-22T09:58:43;27.90;92.60
22212;DHT22;11275;52.488;13.462;2023-06-22T10:01:11;27.90;92.30
22212;DHT22;11275;52.488;13.462;2023-06-22T10:03:37;28.00;92.70
22212;DHT22;11275;52.488;13.462;2023-06-22T10:06:03;28.10;92.40
22212;DHT22;11275;52.488;13.462;2023-06-22T10:08:29;28.20;92.30
22212;DHT22;11275;52.488;13.462;2023-06-22T10:10:54;28.20;92.50
22212;DHT22;11275;52.488;13.462;2023-06-22T10:13:20;28.10;92.30
22212;DHT22;11275;52.488;13.462;2023-06-22T10:15:46;28.00;92.00
22212;DHT22;11275;52.488;13.462;2023-06-22T10:18:17;27.80;92.40
22212;DHT22;11275;52.488;13.462;2023-06-22T10:20:43;27.60;91.90
22212;DHT22;11275;52.488;13.462;2023-06-22T10:23:09;27.50;91.90
22212;DHT22;11275;52.488;13.462;2023-06-22T10:25:34;27.60;92.40
22212;DHT22;11275;52.488;13.462;2023-06-22T10:28:00;27.70;91.20
22212;DHT22;11275;52.488;13.462;2023-06-22T10:30:26;27.80;91.60
22212;DHT22;11275;52.488;13.462;2023-06-22T10:32:51;27.90;91.40
22212;DHT22;11275;52.488;13.462;2023-06-22T10:35:17;27.90;90.20
22212;DHT22;11275;52.488;13.462;2023-06-22T10:37:44;28.00;90.50
22212;DHT22;11275;52.488;13.462;2023-06-22T10:40:12;28.00;90.20
22212;DHT22;11275;52.488;13.462;2023-06-22T10:42:38;27.90;89.40
22212;DHT22;11275;52.488;13.462;2023-06-22T10:45:04;27.80;90.30
22212;DHT22;11275;52.488;13.462;2023-06-22T10:47:30;27.90;90.40
22212;DHT22;11275;52.488;13.462;2023-06-22T10:49:56;28.00;90.70
22212;DHT22;11275;52.488;13.462;2023-06-22T10:52:21;28.00;90.30
22212;DHT22;11275;52.488;13.462;2023-06-22T10:54:47;28.00;89.70
22212;DHT22;11275;52.488;13.462;2023-06-22T10:57:13;28.00;90.70
22212;DHT22;11275;52.488;13.462;2023-06-22T10:59:39;28.00;90.50
22212;DHT22;11275;52.488;13.462;2023-06-22T11:02:04;28.10;90.60
22212;DHT22;11275;52.488;13.462;2023-06-22T11:04:30;28.30;89.80
22212;DHT22;11275;52.488;13.462;2023-06-22T11:06:56;28.40;88.80
22212;DHT22;11275;52.488;13.462;2023-06-22T11:09:22;28.40;88.20
22212;DHT22;11275;52.488;13.462;2023-06-22T11:11:49;28.40;87.80
22212;DHT22;11275;52.488;13.462;2023-06-22T11:14:14;28.50;88.10
22212;DHT22;11275;52.488;13.462;2023-06-22T11:16:40;28.40;86.90
22212;DHT22;11275;52.488;13.462;2023-06-22T11:19:06;28.60;87.20
22212;DHT22;11275;52.488;13.462;2023-06-22T11:21:33;28.70;85.90
22212;DHT22;11275;52.488;13.462;2023-06-22T11:24:01;28.70;84.70
22212;DHT22;11275;52.488;13.462;2023-06-22T11:26:27;28.80;85.40
22212;DHT22;11275;52.488;13.462;2023-06-22T11:28:53;29.10;85.60
22212;DHT22;11275;52.488;13.462;2023-06-22T11:31:19;29.10;85.20
22212;DHT22;11275;52.488;13.462;2023-06-22T11:33:44;29.10;84.50
22212;DHT22;11275;52.488;13.462;2023-06-22T11:36:11;29.10;84.70
22212;DHT22;11275;52.488;13.462;2023-06-22T11:38:37;29.10;83.40
22212;DHT22;11275;52.488;13.462;2023-06-22T11:41:05;29.10;83.70
22212;DHT22;11275;52.488;13.462;2023-06-22T11:43:31;29.00;83.40
22212;DHT22;11275;52.488;13.462;2023-06-22T11:45:57;28.90;83.90
22212;DHT22;11275;52.488;13.462;2023-06-22T11:48:24;28.80;83.60
22212;DHT22;11275;52.488;13.462;2023-06-22T11:50:50;28.80;84.60
22212;DHT22;11275;52.488;13.462;2023-06-22T11:53:16;28.70;82.50
22212;DHT22;11275;52.488;13.462;2023-06-22T11:55:43;28.60;82.10
22212;DHT22;11275;52.488;13.462;2023-06-22T11:58:09;28.70;82.50
22212;DHT22;11275;52.488;13.462;2023-06-22T12:00:35;28.90;82.30
22212;DHT22;11275;52.488;13.462;2023-06-22T12:03:01;29.20;83.00
22212;DHT22;11275;52.488;13.462;2023-06-22T12:05:26;29.40;82.40
22212;DHT22;11275;52.488;13.462;2023-06-22T12:07:55;29.40;83.00
22212;DHT22;11275;52.488;13.462;2023-06-22T12:10:23;29.50;82.50
22212;DHT22;11275;52.488;13.462;2023-06-22T12:12:48;29.40;82.00
22212;DHT22;11275;52.488;13.462;2023-06-22T12:15:14;29.40;80.40
22212;DHT22;11275;52.488;13.462;2023-06-22T12:17:40;29.30;79.40
22212;DHT22;11275;52.488;13.462;2023-06-22T12:20:07;29.20;83.90
22212;DHT22;11275;52.488;13.462;2023-06-22T12:22:33;29.20;83.50
22212;DHT22;11275;52.488;13.462;2023-06-22T12:24:59;29.20;85.30
22212;DHT22;11275;52.488;13.462;2023-06-22T12:27:25;29.20;85.90
22212;DHT22;11275;52.488;13.462;2023-06-22T12:29:51;29.10;87.70
22212;DHT22;11275;52.488;13.462;2023-06-22T12:32:16;29.10;88.40
22212;DHT22;11275;52.488;13.462;2023-06-22T12:34:43;29.00;84.20
22212;DHT22;11275;52.488;13.462;2023-06-22T12:37:09;29.10;90.00
22212;DHT22;11275;52.488;13.462;2023-06-22T12:39:34;29.10;86.50
22212;DHT22;11275;52.488;13.462;2023-06-22T12:42:00;29.10;89.90
22212;DHT22;11275;52.488;13.462;2023-06-22T12:44:26;29.20;90.70
22212;DHT22;11275;52.488;13.462;2023-06-22T12:46:52;29.20;90.20
22212;DHT22;11275;52.488;13.462;2023-06-22T12:49:17;29.20;90.80
22212;DHT22;11275;52.488;13.462;2023-06-22T12:51:43;29.10;85.90
22212;DHT22;11275;52.488;13.462;2023-06-22T12:54:10;29.00;81.20
22212;DHT22;11275;52.488;13.462;2023-06-22T12:56:37;29.00;86.00
22212;DHT22;11275;52.488;13.462;2023-06-22T12:59:03;29.10;86.00
22212;DHT22;11275;52.488;13.462;2023-06-22T13:01:29;29.20;89.80
22212;DHT22;11275;52.488;13.462;2023-06-22T13:03:58;29.30;84.50
22212;DHT22;11275;52.488;13.462;2023-06-22T13:06:24;29.50;88.80
22212;DHT22;11275;52.488;13.462;2023-06-22T13:08:51;29.60;89.90
22212;DHT22;11275;52.488;13.462;2023-06-22T13:11:16;29.70;89.90
22212;DHT22;11275;52.488;13.462;2023-06-22T13:13:44;29.70;88.20
22212;DHT22;11275;52.488;13.462;2023-06-22T13:16:10;29.80;87.20
22212;DHT22;11275;52.488;13.462;2023-06-22T13:18:35;29.80;88.60
22212;DHT22;11275;52.488;13.462;2023-06-22T13:21:04;29.70;88.50
22212;DHT22;11275;52.488;13.462;2023-06-22T13:23:30;29.70;87.00
22212;DHT22;11275;52.488;13.462;2023-06-22T13:25:58;29.60;85.60
22212;DHT22;11275;52.488;13.462;2023-06-22T13:28:23;29.60;85.70
22212;DHT22;11275;52.488;13.462;2023-06-22T13:30:49;29.50;87.40
22212;DHT22;11275;52.488;13.462;2023-06-22T13:33:15;29.50;85.40
22212;DHT22;11275;52.488;13.462;2023-06-22T13:35:41;29.50;86.70
22212;DHT22;11275;52.488;13.462;2023-06-22T13:38:10;29.50;87.80
22212;DHT22;11275;52.488;13.462;2023-06-22T13:40:37;29.50;84.50
22212;DHT22;11275;52.488;13.462;2023-06-22T13:43:05;29.60;88.00
22212;DHT22;11275;52.488;13.462;2023-06-22T13:45:32;29.70;87.00
22212;DHT22;11275;52.488;13.462;2023-06-22T13:47:58;29.60;86.60
22212;DHT22;11275;52.488;13.462;2023-06-22T13:50:23;29.60;85.80
22212;DHT22;11275;52.488;13.462;2023-06-22T13:52:49;29.70;84.40
22212;DHT22;11275;52.488;13.462;2023-06-22T13:55:15;29.60;81.10
22212;DHT22;11275;52.488;13.462;2023-06-22T13:57:42;29.60;82.20
22212;DHT22;11275;52.488;13.462;2023-06-22T14:00:08;29.80;83.80
22212;DHT22;11275;52.488;13.462;2023-06-22T14:02:34;29.70;84.30
22212;DHT22;11275;52.488;13.462;2023-06-22T14:05:00;29.90;85.60
22212;DHT22;11275;52.488;13.462;2023-06-22T14:07:27;29.90;83.90
22212;DHT22;11275;52.488;13.462;2023-06-22T14:09:53;30.00;83.30
22212;DHT22;11275;52.488;13.462;2023-06-22T14:12:18;30.00;81.60
22212;DHT22;11275;52.488;13.462;2023-06-22T14:14:44;30.00;81.90
22212;DHT22;11275;52.488;13.462;2023-06-22T14:17:10;30.00;82.20
22212;DHT22;11275;52.488;13.462;2023-06-22T14:19:36;30.10;83.30
22212;DHT22;11275;52.488;13.462;2023-06-22T14:22:02;30.10;83.20
22212;DHT22;11275;52.488;13.462;2023-06-22T14:24:28;30.10;81.00
22212;DHT22;11275;52.488;13.462;2023-06-22T14:26:54;30.20;81.80
22212;DHT22;11275;52.488;13.462;2023-06-22T14:29:21;30.30;82.10
22212;DHT22;11275;52.488;13.462;2023-06-22T14:31:47;30.40;82.00
22212;DHT22;11275;52.488;13.462;2023-06-22T14:34:13;30.20;81.30
22212;DHT22;11275;52.488;13.462;2023-06-22T14:36:39;30.30;80.70
22212;DHT22;11275;52.488;13.462;2023-06-22T14:39:04;30.40;82.10
22212;DHT22;11275;52.488;13.462;2023-06-22T14:41:30;30.40;83.20
22212;DHT22;11275;52.488;13.462;2023-06-22T14:43:56;30.50;82.90
22212;DHT22;11275;52.488;13.462;2023-06-22T14:46:22;30.60;82.20
22212;DHT22;11275;52.488;13.462;2023-06-22T14:48:48;30.70;81.70
22212;DHT22;11275;52.488;13.462;2023-06-22T14:51:14;30.70;81.50
22212;DHT22;11275;52.488;13.462;2023-06-22T14:53:42;30.70;80.50
22212;DHT22;11275;52.488;13.462;2023-06-22T14:56:08;30.80;82.10
22212;DHT22;11275;52.488;13.462;2023-06-22T14:58:34;30.90;81.30
22212;DHT22;11275;52.488;13.462;2023-06-22T15:01:02;30.80;79.70
22212;DHT22;11275;52.488;13.462;2023-06-22T15:03:28;30.90;77.90
22212;DHT22;11275;52.488;13.462;2023-06-22T15:05:56;30.90;79.20
22212;DHT22;11275;52.488;13.462;2023-06-22T15:08:22;30.90;79.30
22212;DHT22;11275;52.488;13.462;2023-06-22T15:10:48;31.00;80.30
22212;DHT22;11275;52.488;13.462;2023-06-22T15:13:13;31.00;79.80
22212;DHT22;11275;52.488;13.462;2023-06-22T15:15:39;31.10;80.20
22212;DHT22;11275;52.488;13.462;2023-06-22T15:18:05;31.20;79.20
22212;DHT22;11275;52.488;13.462;2023-06-22T15:20:30;31.20;79.20
22212;DHT22;11275;52.488;13.462;2023-06-22T15:22:57;31.20;76.90
22212;DHT22;11275;52.488;13.462;2023-06-22T15:25:23;31.00;78.10
22212;DHT22;11275;52.488;13.462;2023-06-22T15:27:49;31.00;79.60
22212;DHT22;11275;52.488;13.462;2023-06-22T15:30:14;31.10;77.90
22212;DHT22;11275;52.488;13.462;2023-06-22T15:32:44;31.20;78.00
22212;DHT22;11275;52.488;13.462;2023-06-22T15:35:10;31.30;80.20
22212;DHT22;11275;52.488;13.462;2023-06-22T15:37:36;31.20;77.70
22212;DHT22;11275;52.488;13.462;2023-06-22T15:40:01;31.00;79.30
22212;DHT22;11275;52.488;13.462;2023-06-22T15:42:28;30.80;77.70
22212;DHT22;11275;52.488;13.462;2023-06-22T15:44:53;30.70;77.50
22212;DHT22;11275;52.488;13.462;2023-06-22T15:47:19;30.60;79.50
22212;DHT22;11275;52.488;13.462;2023-06-22T15:49:47;30.60;79.00
22212;DHT22;11275;52.488;13.462;2023-06-22T15:52:13;30.60;77.70
22212;DHT22;11275;52.488;13.462;2023-06-22T15:54:43;30.80;80.40
22212;DHT22;11275;52.488;13.462;2023-06-22T15:57:08;30.80;79.70
22212;DHT22;11275;52.488;13.462;2023-06-22T15:59:38;30.80;78.30
22212;DHT22;11275;52.488;13.462;2023-06-22T16:02:04;30.80;77.50
22212;DHT22;11275;52.488;13.462;2023-06-22T16:04:30;30.90;77.60
22212;DHT22;11275;52.488;13.462;2023-06-22T16:06:56;30.90;77.90
22212;DHT22;11275;52.488;13.462;2023-06-22T16:09:21;30.90;76.60
22212;DHT22;11275;52.488;13.462;2023-06-22T16:11:47;30.80;76.30
22212;DHT22;11275;52.488;13.462;2023-06-22T16:14:13;30.90;76.20
22212;DHT22;11275;52.488;13.462;2023-06-22T16:16:38;30.90;76.30
22212;DHT22;11275;52.488;13.462;2023-06-22T16:19:04;30.90;76.90
22212;DHT22;11275;52.488;13.462;2023-06-22T16:21:30;30.80;77.30
22212;DHT22;11275;52.488;13.462;2023-06-22T16:23:55;30.80;77.50
22212;DHT22;11275;52.488;13.462;2023-06-22T16:26:21;30.70;77.80
22212;DHT22;11275;52.488;13.462;2023-06-22T16:28:47;30.70;78.00
22212;DHT22;11275;52.488;13.462;2023-06-22T16:31:12;30.70;78.10
22212;DHT22;11275;52.488;13.462;2023-06-22T16:33:38;30.60;77.40
22212;DHT22;11275;52.488;13.462;2023-06-22T16:36:04;30.50;78.10
22212;DHT22;11275;52.488;13.462;2023-06-22T16:38:29;30.40;78.60
22212;DHT22;11275;52.488;13.462;2023-06-22T16:40:55;30.40;78.60